sensor_id;sensor_type;location;lat;lon;timestamp;pressure;altitude;pressure_sealevel;temperature;humidity
64230;BME280;50547;49.498;0.092;2024-02-14T00:01:38;1013.77;;;11.30;88.11
64230;BME280;50547;49.498;0.092;2024-02-14T00:04:07;1013.79;;;11.30;88.18
64230;BME280;50547;49.498;0.092;2024-02-14T00:06:36;1013.77;;;11.25;88.51
64230;BME280;50547;49.498;0.092;2024-02-14T00:09:05;1013.81;;;11.28;88.38
64230;BME280;50547;49.498;0.092;2024-02-14T00:11:35;1013.71;;;11.30;88.21
64230;BME280;50547;49.498;0.092;2024-02-14T00:14:04;1013.69;;;11.31;88.32
64230;BME280;50547;49.498;0.092;2024-02-14T00:16:30;1013.71;;;11.33;88.31
64230;BME280;50547;49.498;0.092;2024-02-14T00:18:59;1013.73;;;11.40;87.94
64230;BME280;50547;49.498;0.092;2024-02-14T00:21:28;1013.67;;;11.35;88.27
64230;BME280;50547;49.498;0.092;2024-02-14T00:23:57;1013.65;;;11.31;88.40
64230;BME280;50547;49.498;0.092;2024-02-14T00:26:26;1013.65;;;11.37;88.04
64230;BME280;50547;49.498;0.092;2024-02-14T00:28:55;1013.67;;;11.40;87.84
64230;BME280;50547;49.498;0.092;2024-02-14T00:31:24;1013.71;;;11.32;88.39
64230;BME280;50547;49.498;0.092;2024-02-14T00:33:53;1013.69;;;11.41;88.07
64230;BME280;50547;49.498;0.092;2024-02-14T00:36:23;1013.81;;;11.43;87.86
64230;BME280;50547;49.498;0.092;2024-02-14T00:38:52;1013.75;;;11.43;87.82
64230;BME280;50547;49.498;0.092;2024-02-14T00:41:21;1013.85;;;11.45;87.90
64230;BME280;50547;49.498;0.092;2024-02-14T00:43:50;1013.83;;;11.41;88.18
64230;BME280;50547;49.498;0.092;2024-02-14T00:46:19;1013.81;;;11.44;88.07
64230;BME280;50547;49.498;0.092;2024-02-14T00:48:48;1013.81;;;11.44;88.15
64230;BME280;50547;49.498;0.092;2024-02-14T00:51:19;1013.87;;;11.47;88.15
64230;BME280;50547;49.498;0.092;2024-02-14T00:53:48;1013.83;;;11.45;88.23
64230;BME280;50547;49.498;0.092;2024-02-14T00:56:17;1013.95;;;11.51;88.10
64230;BME280;50547;49.498;0.092;2024-02-14T00:58:46;1014.01;;;11.40;88.70
64230;BME280;50547;49.498;0.092;2024-02-14T01:01:15;1014.04;;;11.44;88.46
64230;BME280;50547;49.498;0.092;2024-02-14T01:03:44;1013.97;;;11.47;88.24
64230;BME280;50547;49.498;0.092;2024-02-14T01:06:14;1013.97;;;11.50;88.16
64230;BME280;50547;49.498;0.092;2024-02-14T01:08:43;1013.93;;;11.54;87.95
64230;BME280;50547;49.498;0.092;2024-02-14T01:11:12;1013.95;;;11.55;88.01
64230;BME280;50547;49.498;0.092;2024-02-14T01:13:42;1013.93;;;11.53;88.16
64230;BME280;50547;49.498;0.092;2024-02-14T01:16:11;1013.89;;;11.51;88.16
64230;BME280;50547;49.498;0.092;2024-02-14T01:18:40;1013.89;;;11.51;88.15
64230;BME280;50547;49.498;0.092;2024-02-14T01:21:09;1013.91;;;11.51;88.29
64230;BME280;50547;49.498;0.092;2024-02-14T01:23:38;1013.99;;;11.51;88.37
64230;BME280;50547;49.498;0.092;2024-02-14T01:26:07;1013.97;;;11.57;88.18
64230;BME280;50547;49.498;0.092;2024-02-14T01:28:36;1014.01;;;11.62;87.90
64230;BME280;50547;49.498;0.092;2024-02-14T01:31:02;1014.03;;;11.58;88.34
64230;BME280;50547;49.498;0.092;2024-02-14T01:33:31;1014.03;;;11.58;88.40
64230;BME280;50547;49.498;0.092;2024-02-14T01:36:00;1014.08;;;11.58;88.29
64230;BME280;50547;49.498;0.092;2024-02-14T01:38:26;1014.08;;;11.56;88.61
64230;BME280;50547;49.498;0.092;2024-02-14T01:41:01;1014.01;;;11.61;88.27
64230;BME280;50547;49.498;0.092;2024-02-14T01:43:30;1013.95;;;11.67;88.01
64230;BME280;50547;49.498;0.092;2024-02-14T01:46:05;1013.99;;;11.63;88.26
64230;BME280;50547;49.498;0.092;2024-02-14T01:48:34;1013.97;;;11.62;88.41
64230;BME280;50547;49.498;0.092;2024-02-14T01:51:05;1014.01;;;11.73;87.93
64230;BME280;50547;49.498;0.092;2024-02-14T01:53:37;1014.01;;;11.69;88.26
64230;BME280;50547;49.498;0.092;2024-02-14T01:56:07;1014.01;;;11.75;88.16
64230;BME280;50547;49.498;0.092;2024-02-14T01:58:36;1014.01;;;11.77;87.97
64230;BME280;50547;49.498;0.092;2024-02-14T02:01:06;1014.08;;;11.83;87.82
64230;BME280;50547;49.498;0.092;2024-02-14T02:03:35;1014.16;;;11.80;87.77
64230;BME280;50547;49.498;0.092;2024-02-14T02:06:05;1014.12;;;11.85;87.45
64230;BME280;50547;49.498;0.092;2024-02-14T02:08:35;1014.14;;;11.81;87.66
64230;BME280;50547;49.498;0.092;2024-02-14T02:11:04;1014.14;;;11.83;87.47
64230;BME280;50547;49.498;0.092;2024-02-14T02:13:33;1014.18;;;11.76;88.09
64230;BME280;50547;49.498;0.092;2024-02-14T02:16:02;1014.18;;;11.81;87.59
64230;BME280;50547;49.498;0.092;2024-02-14T02:18:32;1014.06;;;11.88;87.25
64230;BME280;50547;49.498;0.092;2024-02-14T02:21:01;1013.95;;;11.88;87.14
64230;BME280;50547;49.498;0.092;2024-02-14T02:23:30;1014.01;;;11.85;87.39
64230;BME280;50547;49.498;0.092;2024-02-14T02:25:59;1014.03;;;11.84;87.30
64230;BME280;50547;49.498;0.092;2024-02-14T02:28:28;1014.14;;;11.83;87.41
64230;BME280;50547;49.498;0.092;2024-02-14T02:30:54;1014.03;;;11.80;87.67
64230;BME280;50547;49.498;0.092;2024-02-14T02:33:23;1014.06;;;11.80;87.58
64230;BME280;50547;49.498;0.092;2024-02-14T02:35:52;1014.10;;;11.81;87.40
64230;BME280;50547;49.498;0.092;2024-02-14T02:38:18;1014.06;;;11.74;87.93
64230;BME280;50547;49.498;0.092;2024-02-14T02:40:47;1014.08;;;11.69;88.20
64230;BME280;50547;49.498;0.092;2024-02-14T02:43:16;1014.10;;;11.68;88.09
64230;BME280;50547;49.498;0.092;2024-02-14T02:45:45;1014.12;;;11.67;88.05
64230;BME280;50547;49.498;0.092;2024-02-14T02:48:14;1014.08;;;11.66;88.08
64230;BME280;50547;49.498;0.092;2024-02-14T02:50:43;1014.06;;;11.75;87.54
64230;BME280;50547;49.498;0.092;2024-02-14T02:53:12;1014.10;;;11.73;87.66
64230;BME280;50547;49.498;0.092;2024-02-14T02:55:40;1014.08;;;11.72;87.71
64230;BME280;50547;49.498;0.092;2024-02-14T02:58:09;1014.03;;;11.77;87.48
64230;BME280;50547;49.498;0.092;2024-02-14T03:00:38;1014.06;;;11.74;87.72
64230;BME280;50547;49.498;0.092;2024-02-14T03:03:08;1014.04;;;11.70;87.86
64230;BME280;50547;49.498;0.092;2024-02-14T03:05:37;1014.04;;;11.75;87.70
64230;BME280;50547;49.498;0.092;2024-02-14T03:08:06;1014.04;;;11.66;88.24
64230;BME280;50547;49.498;0.092;2024-02-14T03:10:35;1014.04;;;11.72;87.96
64230;BME280;50547;49.498;0.092;2024-02-14T03:13:04;1014.03;;;11.55;88.77
64230;BME280;50547;49.498;0.092;2024-02-14T03:15:33;1014.03;;;11.67;88.04
64230;BME280;50547;49.498;0.092;2024-02-14T03:18:03;1014.06;;;11.75;87.59
64230;BME280;50547;49.498;0.092;2024-02-14T03:20:32;1014.08;;;11.75;87.71
64230;BME280;50547;49.498;0.092;2024-02-14T03:23:01;1014.14;;;11.76;87.70
64230;BME280;50547;49.498;0.092;2024-02-14T03:25:30;1014.06;;;11.72;88.03
64230;BME280;50547;49.498;0.092;2024-02-14T03:27:59;1014.04;;;11.61;88.54
64230;BME280;50547;49.498;0.092;2024-02-14T03:30:28;1014.01;;;11.61;88.64
64230;BME280;50547;49.498;0.092;2024-02-14T03:32:57;1014.03;;;11.69;87.96
64230;BME280;50547;49.498;0.092;2024-02-14T03:35:26;1014.01;;;11.73;87.86
64230;BME280;50547;49.498;0.092;2024-02-14T03:37:55;1013.99;;;11.78;87.71
64230;BME280;50547;49.498;0.092;2024-02-14T03:40:24;1013.91;;;11.87;87.27
64230;BME280;50547;49.498;0.092;2024-02-14T03:42:53;1013.89;;;11.91;87.06
64230;BME280;50547;49.498;0.092;2024-02-14T03:45:22;1013.89;;;11.97;87.04
64230;BME280;50547;49.498;0.092;2024-02-14T03:47:51;1013.89;;;11.97;86.94
64230;BME280;50547;49.498;0.092;2024-02-14T03:50:20;1013.95;;;12.01;87.00
64230;BME280;50547;49.498;0.092;2024-02-14T03:52:49;1013.87;;;11.91;87.74
64230;BME280;50547;49.498;0.092;2024-02-14T03:55:18;1013.81;;;12.01;87.06
64230;BME280;50547;49.498;0.092;2024-02-14T03:57:49;1013.83;;;12.08;86.62
64230;BME280;50547;49.498;0.092;2024-02-14T04:00:18;1013.85;;;12.07;86.92
64230;BME280;50547;49.498;0.092;2024-02-14T04:02:47;1013.83;;;12.16;86.60
64230;BME280;50547;49.498;0.092;2024-02-14T04:05:17;1013.83;;;12.23;86.34
64230;BME280;50547;49.498;0.092;2024-02-14T04:07:46;1013.83;;;12.20;86.51
64230;BME280;50547;49.498;0.092;2024-02-14T04:10:15;1013.81;;;12.18;86.63
64230;BME280;50547;49.498;0.092;2024-02-14T04:12:44;1013.73;;;12.20;86.90
64230;BME280;50547;49.498;0.092;2024-02-14T04:15:13;1013.77;;;12.16;87.10
64230;BME280;50547;49.498;0.092;2024-02-14T04:17:42;1013.73;;;12.10;87.36
64230;BME280;50547;49.498;0.092;2024-02-14T04:20:12;1013.79;;;12.21;86.79
64230;BME280;50547;49.498;0.092;2024-02-14T04:22:41;1013.77;;;12.23;86.89
64230;BME280;50547;49.498;0.092;2024-02-14T04:25:10;1013.69;;;12.20;87.00
64230;BME280;50547;49.498;0.092;2024-02-14T04:27:40;1013.71;;;12.24;86.94
64230;BME280;50547;49.498;0.092;2024-02-14T04:30:10;1013.69;;;12.24;87.12
64230;BME280;50547;49.498;0.092;2024-02-14T04:32:39;1013.75;;;12.33;86.74
64230;BME280;50547;49.498;0.092;2024-02-14T04:35:08;1013.71;;;12.37;86.79
64230;BME280;50547;49.498;0.092;2024-02-14T04:37:37;1013.75;;;12.45;86.29
64230;BME280;50547;49.498;0.092;2024-02-14T04:40:07;1013.79;;;12.38;86.52
64230;BME280;50547;49.498;0.092;2024-02-14T04:42:33;1013.69;;;12.30;87.01
64230;BME280;50547;49.498;0.092;2024-02-14T04:45:02;1013.77;;;12.27;87.14
64230;BME280;50547;49.498;0.092;2024-02-14T04:47:32;1013.67;;;12.28;87.04
64230;BME280;50547;49.498;0.092;2024-02-14T04:50:01;1013.67;;;12.32;87.33
64230;BME280;50547;49.498;0.092;2024-02-14T04:52:30;1013.71;;;12.45;86.63
64230;BME280;50547;49.498;0.092;2024-02-14T04:54:59;1013.77;;;12.45;86.62
64230;BME280;50547;49.498;0.092;2024-02-14T04:57:28;1013.81;;;12.48;86.35
64230;BME280;50547;49.498;0.092;2024-02-14T04:59:58;1013.77;;;12.46;86.37
64230;BME280;50547;49.498;0.092;2024-02-14T05:02:27;1013.77;;;12.40;86.82
64230;BME280;50547;49.498;0.092;2024-02-14T05:04:56;1013.73;;;12.46;86.42
64230;BME280;50547;49.498;0.092;2024-02-14T05:07:25;1013.73;;;12.41;87.01
64230;BME280;50547;49.498;0.092;2024-02-14T05:09:54;1013.79;;;12.41;86.94
64230;BME280;50547;49.498;0.092;2024-02-14T05:12:23;1013.83;;;12.47;86.64
64230;BME280;50547;49.498;0.092;2024-02-14T05:14:53;1013.87;;;12.48;86.41
64230;BME280;50547;49.498;0.092;2024-02-14T05:17:22;1013.87;;;12.46;86.30
64230;BME280;50547;49.498;0.092;2024-02-14T05:19:50;1014.03;;;12.48;86.08
64230;BME280;50547;49.498;0.092;2024-02-14T05:22:19;1014.06;;;12.36;86.68
64230;BME280;50547;49.498;0.092;2024-02-14T05:24:49;1014.08;;;12.35;86.69
64230;BME280;50547;49.498;0.092;2024-02-14T05:27:18;1014.04;;;12.24;87.28
64230;BME280;50547;49.498;0.092;2024-02-14T05:29:47;1014.03;;;12.31;86.83
64230;BME280;50547;49.498;0.092;2024-02-14T05:32:16;1014.01;;;12.35;86.44
64230;BME280;50547;49.498;0.092;2024-02-14T05:34:45;1014.03;;;12.38;86.32
64230;BME280;50547;49.498;0.092;2024-02-14T05:37:14;1013.99;;;12.39;86.39
64230;BME280;50547;49.498;0.092;2024-02-14T05:39:43;1013.91;;;12.34;87.02
64230;BME280;50547;49.498;0.092;2024-02-14T05:42:12;1013.91;;;12.34;87.12
64230;BME280;50547;49.498;0.092;2024-02-14T05:44:41;1013.91;;;12.40;87.02
64230;BME280;50547;49.498;0.092;2024-02-14T05:47:10;1013.95;;;12.49;86.63
64230;BME280;50547;49.498;0.092;2024-02-14T05:49:40;1014.04;;;12.41;87.16
64230;BME280;50547;49.498;0.092;2024-02-14T05:52:09;1014.06;;;12.44;87.09
64230;BME280;50547;49.498;0.092;2024-02-14T05:54:38;1014.06;;;12.35;87.51
64230;BME280;50547;49.498;0.092;2024-02-14T05:57:07;1014.03;;;12.39;87.39
64230;BME280;50547;49.498;0.092;2024-02-14T05:59:36;1014.03;;;12.41;87.14
64230;BME280;50547;49.498;0.092;2024-02-14T06:02:07;1013.97;;;12.38;87.24
64230;BME280;50547;49.498;0.092;2024-02-14T06:04:36;1013.97;;;12.37;87.17
64230;BME280;50547;49.498;0.092;2024-02-14T06:07:05;1013.87;;;12.31;87.37
64230;BME280;50547;49.498;0.092;2024-02-14T06:09:34;1013.91;;;12.32;87.68
64230;BME280;50547;49.498;0.092;2024-02-14T06:12:03;1014.03;;;12.43;87.24
64230;BME280;50547;49.498;0.092;2024-02-14T06:14:32;1014.04;;;12.40;87.33
64230;BME280;50547;49.498;0.092;2024-02-14T06:17:01;1014.03;;;12.34;87.43
64230;BME280;50547;49.498;0.092;2024-02-14T06:19:30;1014.06;;;12.35;87.21
64230;BME280;50547;49.498;0.092;2024-02-14T06:21:59;1014.04;;;12.37;87.30
64230;BME280;50547;49.498;0.092;2024-02-14T06:24:28;1014.03;;;12.40;87.44
64230;BME280;50547;49.498;0.092;2024-02-14T06:26:57;1014.14;;;12.46;87.24
64230;BME280;50547;49.498;0.092;2024-02-14T06:29:26;1014.22;;;12.48;86.98
64230;BME280;50547;49.498;0.092;2024-02-14T06:31:55;1014.22;;;12.56;86.63
64230;BME280;50547;49.498;0.092;2024-02-14T06:34:24;1014.26;;;12.56;86.24
64230;BME280;50547;49.498;0.092;2024-02-14T06:36:54;1014.28;;;12.53;86.44
64230;BME280;50547;49.498;0.092;2024-02-14T06:39:23;1014.34;;;12.48;86.39
64230;BME280;50547;49.498;0.092;2024-02-14T06:41:52;1014.36;;;12.46;86.57
64230;BME280;50547;49.498;0.092;2024-02-14T06:44:21;1014.34;;;12.50;86.36
64230;BME280;50547;49.498;0.092;2024-02-14T06:46:50;1014.30;;;12.51;86.06
64230;BME280;50547;49.498;0.092;2024-02-14T06:49:19;1014.30;;;12.55;85.81
64230;BME280;50547;49.498;0.092;2024-02-14T06:51:48;1014.38;;;12.67;85.18
64230;BME280;50547;49.498;0.092;2024-02-14T06:54:17;1014.36;;;12.59;85.75
64230;BME280;50547;49.498;0.092;2024-02-14T06:56:46;1014.47;;;12.73;85.20
64230;BME280;50547;49.498;0.092;2024-02-14T06:59:15;1014.43;;;12.60;86.06
64230;BME280;50547;49.498;0.092;2024-02-14T07:01:44;1014.43;;;12.59;86.43
64230;BME280;50547;49.498;0.092;2024-02-14T07:04:15;1014.51;;;12.65;86.36
64230;BME280;50547;49.498;0.092;2024-02-14T07:06:44;1014.49;;;12.68;86.18
64230;BME280;50547;49.498;0.092;2024-02-14T07:09:13;1014.47;;;12.63;86.51
64230;BME280;50547;49.498;0.092;2024-02-14T07:11:42;1014.47;;;12.63;86.55
64230;BME280;50547;49.498;0.092;2024-02-14T07:14:12;1014.53;;;12.58;86.79
64230;BME280;50547;49.498;0.092;2024-02-14T07:16:41;1014.61;;;12.75;85.97
64230;BME280;50547;49.498;0.092;2024-02-14T07:19:10;1014.57;;;12.69;86.29
64230;BME280;50547;49.498;0.092;2024-02-14T07:21:39;1014.53;;;12.61;87.00
64230;BME280;50547;49.498;0.092;2024-02-14T07:24:08;1014.55;;;12.68;86.65
64230;BME280;50547;49.498;0.092;2024-02-14T07:26:37;1014.61;;;12.67;86.62
64230;BME280;50547;49.498;0.092;2024-02-14T07:29:06;1014.67;;;12.70;86.38
64230;BME280;50547;49.498;0.092;2024-02-14T07:31:35;1014.81;;;12.81;85.68
64230;BME280;50547;49.498;0.092;2024-02-14T07:34:04;1014.85;;;12.73;85.97
64230;BME280;50547;49.498;0.092;2024-02-14T07:36:33;1014.77;;;12.81;85.55
64230;BME280;50547;49.498;0.092;2024-02-14T07:39:02;1014.79;;;12.71;85.82
64230;BME280;50547;49.498;0.092;2024-02-14T07:41:36;1014.75;;;12.67;85.99
64230;BME280;50547;49.498;0.092;2024-02-14T07:44:05;1014.85;;;12.71;85.63
64230;BME280;50547;49.498;0.092;2024-02-14T07:46:34;1014.79;;;12.68;85.59
64230;BME280;50547;49.498;0.092;2024-02-14T07:49:03;1014.83;;;12.65;85.85
64230;BME280;50547;49.498;0.092;2024-02-14T07:51:32;1014.85;;;12.69;85.50
64230;BME280;50547;49.498;0.092;2024-02-14T07:54:01;1014.79;;;12.56;86.18
64230;BME280;50547;49.498;0.092;2024-02-14T07:56:30;1014.83;;;12.54;86.24
64230;BME280;50547;49.498;0.092;2024-02-14T07:58:59;1014.83;;;12.51;86.35
64230;BME280;50547;49.498;0.092;2024-02-14T08:01:30;1014.87;;;12.47;86.45
64230;BME280;50547;49.498;0.092;2024-02-14T08:04:25;1014.87;;;12.46;86.41
64230;BME280;50547;49.498;0.092;2024-02-14T08:06:51;1014.85;;;12.41;86.68
64230;BME280;50547;49.498;0.092;2024-02-14T08:09:20;1014.83;;;12.35;86.84
64230;BME280;50547;49.498;0.092;2024-02-14T08:11:49;1014.89;;;12.43;86.39
64230;BME280;50547;49.498;0.092;2024-02-14T08:14:18;1014.92;;;12.34;86.88
64230;BME280;50547;49.498;0.092;2024-02-14T08:16:47;1014.90;;;12.33;86.80
64230;BME280;50547;49.498;0.092;2024-02-14T08:19:16;1014.92;;;12.31;86.91
64230;BME280;50547;49.498;0.092;2024-02-14T08:21:45;1014.94;;;12.19;87.57
64230;BME280;50547;49.498;0.092;2024-02-14T08:24:14;1014.98;;;12.33;86.84
64230;BME280;50547;49.498;0.092;2024-02-14T08:26:43;1015.08;;;12.42;86.37
64230;BME280;50547;49.498;0.092;2024-02-14T08:29:12;1015.04;;;12.40;86.58
64230;BME280;50547;49.498;0.092;2024-02-14T08:31:41;1014.98;;;12.54;85.84
64230;BME280;50547;49.498;0.092;2024-02-14T08:34:10;1014.96;;;12.46;86.49
64230;BME280;50547;49.498;0.092;2024-02-14T08:36:39;1015.04;;;12.51;86.32
64230;BME280;50547;49.498;0.092;2024-02-14T08:39:08;1015.06;;;12.59;86.03
64230;BME280;50547;49.498;0.092;2024-02-14T08:41:38;1015.18;;;12.60;86.03
64230;BME280;50547;49.498;0.092;2024-02-14T08:44:07;1015.24;;;12.47;87.30
64230;BME280;50547;49.498;0.092;2024-02-14T08:46:36;1015.20;;;12.58;87.17
64230;BME280;50547;49.498;0.092;2024-02-14T08:49:05;1015.24;;;12.58;87.03
64230;BME280;50547;49.498;0.092;2024-02-14T08:51:40;1015.24;;;12.66;86.24
64230;BME280;50547;49.498;0.092;2024-02-14T08:54:10;1015.30;;;12.73;86.08
64230;BME280;50547;49.498;0.092;2024-02-14T08:56:39;1015.28;;;12.68;86.19
64230;BME280;50547;49.498;0.092;2024-02-14T08:59:08;1015.24;;;12.67;86.28
64230;BME280;50547;49.498;0.092;2024-02-14T09:01:38;1015.28;;;12.61;86.44
64230;BME280;50547;49.498;0.092;2024-02-14T09:04:07;1015.24;;;12.69;86.31
64230;BME280;50547;49.498;0.092;2024-02-14T09:06:37;1015.32;;;12.56;87.12
64230;BME280;50547;49.498;0.092;2024-02-14T09:09:06;1015.28;;;12.62;86.61
64230;BME280;50547;49.498;0.092;2024-02-14T09:11:32;1015.32;;;12.60;86.75
64230;BME280;50547;49.498;0.092;2024-02-14T09:14:01;1015.28;;;12.61;86.93
64230;BME280;50547;49.498;0.092;2024-02-14T09:16:28;1015.32;;;12.49;87.85
64230;BME280;50547;49.498;0.092;2024-02-14T09:18:57;1015.32;;;12.48;87.81
64230;BME280;50547;49.498;0.092;2024-02-14T09:21:26;1015.34;;;12.40;88.24
64230;BME280;50547;49.498;0.092;2024-02-14T09:23:56;1015.34;;;12.26;88.78
64230;BME280;50547;49.498;0.092;2024-02-14T09:26:25;1015.36;;;12.27;88.85
64230;BME280;50547;49.498;0.092;2024-02-14T09:28:54;1015.39;;;12.22;89.03
64230;BME280;50547;49.498;0.092;2024-02-14T09:31:23;1015.41;;;12.12;89.40
64230;BME280;50547;49.498;0.092;2024-02-14T09:33:52;1015.39;;;12.14;89.17
64230;BME280;50547;49.498;0.092;2024-02-14T09:36:21;1015.36;;;12.21;88.72
64230;BME280;50547;49.498;0.092;2024-02-14T09:38:51;1015.30;;;12.29;88.59
64230;BME280;50547;49.498;0.092;2024-02-14T09:41:25;1015.30;;;12.27;88.82
64230;BME280;50547;49.498;0.092;2024-02-14T09:43:57;1015.32;;;12.35;88.52
64230;BME280;50547;49.498;0.092;2024-02-14T09:46:26;1015.36;;;12.18;89.51
64230;BME280;50547;49.498;0.092;2024-02-14T09:48:56;1015.34;;;12.23;89.32
64230;BME280;50547;49.498;0.092;2024-02-14T09:51:28;1015.37;;;12.25;89.14
64230;BME280;50547;49.498;0.092;2024-02-14T09:54:04;1015.30;;;12.10;89.86
64230;BME280;50547;49.498;0.092;2024-02-14T09:56:33;1015.28;;;12.06;89.90
64230;BME280;50547;49.498;0.092;2024-02-14T09:59:02;1015.26;;;12.27;88.91
64230;BME280;50547;49.498;0.092;2024-02-14T10:01:31;1015.30;;;12.39;88.46
64230;BME280;50547;49.498;0.092;2024-02-14T10:04:00;1015.28;;;12.33;89.00
64230;BME280;50547;49.498;0.092;2024-02-14T10:06:29;1015.26;;;12.34;89.12
64230;BME280;50547;49.498;0.092;2024-02-14T10:09:00;1015.34;;;12.32;89.11
64230;BME280;50547;49.498;0.092;2024-02-14T10:11:29;1015.30;;;12.27;89.29
64230;BME280;50547;49.498;0.092;2024-02-14T10:13:58;1015.36;;;12.22;89.37
64230;BME280;50547;49.498;0.092;2024-02-14T10:16:28;1015.41;;;12.20;89.50
64230;BME280;50547;49.498;0.092;2024-02-14T10:18:57;1015.45;;;12.10;89.99
64230;BME280;50547;49.498;0.092;2024-02-14T10:21:26;1015.49;;;12.16;89.59
64230;BME280;50547;49.498;0.092;2024-02-14T10:23:55;1015.51;;;12.07;89.84
64230;BME280;50547;49.498;0.092;2024-02-14T10:26:28;1015.57;;;12.05;89.92
64230;BME280;50547;49.498;0.092;2024-02-14T10:28:57;1015.59;;;12.21;88.91
64230;BME280;50547;49.498;0.092;2024-02-14T10:31:26;1015.61;;;12.08;89.72
64230;BME280;50547;49.498;0.092;2024-02-14T10:33:56;1015.61;;;12.05;89.82
64230;BME280;50547;49.498;0.092;2024-02-14T10:36:25;1015.65;;;12.07;89.71
64230;BME280;50547;49.498;0.092;2024-02-14T10:38:56;1015.75;;;12.15;89.32
64230;BME280;50547;49.498;0.092;2024-02-14T10:41:26;1015.89;;;12.08;89.52
64230;BME280;50547;49.498;0.092;2024-02-14T10:43:55;1015.75;;;12.06;89.62
64230;BME280;50547;49.498;0.092;2024-02-14T10:46:25;1015.73;;;12.11;89.36
64230;BME280;50547;49.498;0.092;2024-02-14T10:48:58;1015.71;;;12.19;88.92
64230;BME280;50547;49.498;0.092;2024-02-14T10:51:32;1015.69;;;12.23;88.80
64230;BME280;50547;49.498;0.092;2024-02-14T10:54:04;1015.73;;;12.29;88.51
64230;BME280;50547;49.498;0.092;2024-02-14T10:56:34;1015.83;;;12.25;88.91
64230;BME280;50547;49.498;0.092;2024-02-14T10:59:04;1015.85;;;12.34;88.44
64230;BME280;50547;49.498;0.092;2024-02-14T11:01:34;1015.89;;;12.32;88.69
64230;BME280;50547;49.498;0.092;2024-02-14T11:04:04;1015.85;;;12.32;88.58
64230;BME280;50547;49.498;0.092;2024-02-14T11:06:44;1015.89;;;12.38;88.78
64230;BME280;50547;49.498;0.092;2024-02-14T11:09:15;1015.85;;;12.47;88.29
64230;BME280;50547;49.498;0.092;2024-02-14T11:11:44;1015.75;;;12.46;88.41
64230;BME280;50547;49.498;0.092;2024-02-14T11:14:15;1015.83;;;12.49;88.15
64230;BME280;50547;49.498;0.092;2024-02-14T11:16:59;1015.75;;;12.50;88.04
64230;BME280;50547;49.498;0.092;2024-02-14T11:20:35;1015.83;;;12.51;87.85
64230;BME280;50547;49.498;0.092;2024-02-14T11:23:05;1015.85;;;12.56;87.88
64230;BME280;50547;49.498;0.092;2024-02-14T11:25:33;1015.85;;;12.45;88.51
64230;BME280;50547;49.498;0.092;2024-02-14T11:28:13;1015.83;;;12.37;88.73
64230;BME280;50547;49.498;0.092;2024-02-14T11:30:42;1015.87;;;12.53;88.10
64230;BME280;50547;49.498;0.092;2024-02-14T11:33:15;1015.89;;;12.54;88.14
64230;BME280;50547;49.498;0.092;2024-02-14T11:35:45;1015.93;;;12.57;87.85
64230;BME280;50547;49.498;0.092;2024-02-14T11:38:14;1015.91;;;12.53;88.06
64230;BME280;50547;49.498;0.092;2024-02-14T11:40:44;1015.87;;;12.56;87.65
64230;BME280;50547;49.498;0.092;2024-02-14T11:43:14;1015.89;;;12.53;87.57
64230;BME280;50547;49.498;0.092;2024-02-14T11:45:44;1015.85;;;12.58;87.29
64230;BME280;50547;49.498;0.092;2024-02-14T11:48:14;1015.83;;;12.67;86.83
64230;BME280;50547;49.498;0.092;2024-02-14T11:50:44;1015.85;;;12.75;86.70
64230;BME280;50547;49.498;0.092;2024-02-14T11:53:15;1015.85;;;12.73;86.67
64230;BME280;50547;49.498;0.092;2024-02-14T11:55:44;1015.83;;;12.53;87.53
64230;BME280;50547;49.498;0.092;2024-02-14T11:58:16;1015.87;;;12.71;86.69
64230;BME280;50547;49.498;0.092;2024-02-14T12:00:46;1015.83;;;12.83;85.97
64230;BME280;50547;49.498;0.092;2024-02-14T12:03:18;1015.71;;;12.88;85.84
64230;BME280;50547;49.498;0.092;2024-02-14T12:05:49;1015.67;;;12.94;85.62
64230;BME280;50547;49.498;0.092;2024-02-14T12:08:20;1015.65;;;13.05;85.17
64230;BME280;50547;49.498;0.092;2024-02-14T12:10:53;1015.71;;;12.98;85.34
64230;BME280;50547;49.498;0.092;2024-02-14T12:13:22;1015.83;;;13.03;85.17
64230;BME280;50547;49.498;0.092;2024-02-14T12:15:51;1015.89;;;12.91;85.35
64230;BME280;50547;49.498;0.092;2024-02-14T12:18:20;1015.83;;;12.86;85.98
64230;BME280;50547;49.498;0.092;2024-02-14T12:20:50;1015.75;;;12.98;85.00
64230;BME280;50547;49.498;0.092;2024-02-14T12:23:19;1015.71;;;12.68;86.43
64230;BME280;50547;49.498;0.092;2024-02-14T12:25:48;1015.73;;;12.75;85.96
64230;BME280;50547;49.498;0.092;2024-02-14T12:28:18;1015.69;;;13.02;84.29
64230;BME280;50547;49.498;0.092;2024-02-14T12:30:48;1015.69;;;13.33;82.76
64230;BME280;50547;49.498;0.092;2024-02-14T12:33:18;1015.63;;;13.11;83.36
64230;BME280;50547;49.498;0.092;2024-02-14T12:35:48;1015.67;;;12.79;85.52
64230;BME280;50547;49.498;0.092;2024-02-14T12:38:18;1015.61;;;12.99;84.33
64230;BME280;50547;49.498;0.092;2024-02-14T12:40:48;1015.69;;;13.06;83.83
64230;BME280;50547;49.498;0.092;2024-02-14T12:43:17;1015.65;;;12.97;84.25
64230;BME280;50547;49.498;0.092;2024-02-14T12:45:46;1015.63;;;12.50;85.96
64230;BME280;50547;49.498;0.092;2024-02-14T12:48:22;1015.65;;;12.36;86.54
64230;BME280;50547;49.498;0.092;2024-02-14T12:50:51;1015.63;;;12.61;84.63
64230;BME280;50547;49.498;0.092;2024-02-14T12:53:21;1015.57;;;12.49;85.11
64230;BME280;50547;49.498;0.092;2024-02-14T12:55:50;1015.57;;;12.81;83.96
64230;BME280;50547;49.498;0.092;2024-02-14T12:58:19;1015.47;;;13.02;82.85
64230;BME280;50547;49.498;0.092;2024-02-14T13:00:48;1015.43;;;13.01;82.97
64230;BME280;50547;49.498;0.092;2024-02-14T13:03:17;1015.43;;;13.14;82.42
64230;BME280;50547;49.498;0.092;2024-02-14T13:05:46;1015.41;;;13.11;82.57
64230;BME280;50547;49.498;0.092;2024-02-14T13:08:15;1015.43;;;13.08;83.04
64230;BME280;50547;49.498;0.092;2024-02-14T13:10:45;1015.37;;;12.98;83.18
64230;BME280;50547;49.498;0.092;2024-02-14T13:13:14;1015.41;;;13.09;82.45
64230;BME280;50547;49.498;0.092;2024-02-14T13:15:43;1015.41;;;12.90;83.48
64230;BME280;50547;49.498;0.092;2024-02-14T13:18:13;1015.43;;;12.81;83.78
64230;BME280;50547;49.498;0.092;2024-02-14T13:20:42;1015.39;;;12.74;83.88
64230;BME280;50547;49.498;0.092;2024-02-14T13:23:11;1015.37;;;12.73;83.83